createdAt,value
2023-03-20T00:02:52.705Z,95.10
2023-03-20T00:05:54.760Z,95.00
2023-03-20T00:08:57.669Z,95.10
2023-03-20T00:12:00.398Z,95.20
2023-03-20T00:15:05.457Z,95.20
2023-03-20T00:18:20.116Z,95.30
2023-03-20T00:21:22.515Z,95.30
2023-03-20T00:24:25.382Z,95.30
2023-03-20T00:27:27.540Z,95.50
2023-03-20T00:30:31.378Z,95.60
2023-03-20T00:33:33.444Z,95.80
2023-03-20T00:36:35.509Z,95.70
2023-03-20T00:39:37.523Z,96.00
2023-03-20T00:42:39.675Z,96.10
2023-03-20T00:45:42.257Z,96.20
2023-03-20T00:48:44.772Z,96.20
2023-03-20T00:51:47.064Z,96.10
2023-03-20T00:54:49.233Z,96.40
2023-03-20T00:57:57.359Z,96.40
2023-03-20T01:00:59.520Z,96.30
2023-03-20T01:04:01.961Z,96.40
2023-03-20T01:07:05.277Z,96.30
2023-03-20T01:10:10.046Z,96.20
2023-03-20T01:13:27.720Z,96.50
2023-03-20T01:16:29.966Z,96.50
2023-03-20T01:19:32.058Z,96.50
2023-03-20T01:22:34.121Z,96.50
2023-03-20T01:25:37.118Z,96.80
2023-03-20T01:28:39.394Z,96.70
2023-03-20T01:31:42.257Z,97.10
2023-03-20T01:34:44.963Z,97.00
2023-03-20T01:37:48.314Z,96.90
2023-03-20T01:40:51.181Z,96.70
2023-03-20T01:43:53.888Z,96.90
2023-03-20T01:46:58.158Z,96.90
2023-03-20T01:50:26.693Z,97.10
2023-03-20T01:53:30.542Z,97.00
2023-03-20T01:56:36.382Z,97.10
2023-03-20T01:59:56.255Z,96.90
2023-03-20T02:02:58.834Z,97.00
2023-03-20T02:06:00.965Z,97.00
2023-03-20T02:09:04.322Z,96.80
2023-03-20T02:12:06.984Z,97.00
2023-03-20T02:15:12.022Z,96.70
2023-03-20T02:18:14.136Z,97.00
2023-03-20T02:21:37.506Z,97.00
2023-03-20T02:25:15.843Z,96.80
2023-03-20T02:28:38.360Z,96.80
2023-03-20T02:31:43.454Z,96.80
2023-03-20T02:34:57.928Z,96.80
2023-03-20T02:38:35.750Z,96.70
2023-03-20T02:41:56.176Z,96.80
2023-03-20T02:45:14.457Z,96.70
2023-03-20T02:48:34.094Z,96.70
2023-03-20T02:52:09.722Z,96.90
2023-03-20T02:55:21.652Z,96.80
2023-03-20T02:58:48.647Z,97.10
2023-03-20T03:02:27.296Z,97.20
2023-03-20T03:05:42.792Z,96.90
2023-03-20T03:08:55.799Z,97.10
2023-03-20T03:12:07.018Z,97.30
2023-03-20T03:15:21.404Z,97.20
2023-03-20T03:18:26.013Z,97.40
2023-03-20T03:21:30.097Z,97.40
2023-03-20T03:24:40.718Z,97.70
2023-03-20T03:27:47.083Z,98.00
2023-03-20T03:30:51.010Z,98.30
2023-03-20T03:33:55.705Z,98.30
2023-03-20T03:37:11.545Z,98.40
2023-03-20T03:40:19.829Z,98.50
2023-03-20T03:43:43.697Z,98.80
2023-03-20T03:47:07.161Z,99.40
2023-03-20T03:50:23.869Z,99.30
2023-03-20T03:53:32.379Z,99.40
2023-03-20T03:56:37.379Z,99.60
2023-03-20T03:59:47.728Z,99.70
2023-03-20T04:02:54.742Z,99.70
2023-03-20T04:05:58.871Z,99.70
2023-03-20T04:09:01.500Z,99.60
2023-03-20T04:12:03.787Z,99.40
2023-03-20T04:15:06.634Z,99.50
2023-03-20T04:18:19.170Z,99.60
2023-03-20T04:21:21.472Z,99.30
2023-03-20T04:24:23.591Z,99.40
2023-03-20T04:27:25.580Z,99.30
2023-03-20T04:30:27.835Z,99.50
2023-03-20T04:33:30.147Z,99.10
2023-03-20T04:36:32.201Z,99.50
2023-03-20T04:39:35.596Z,99.10
2023-03-20T04:42:37.705Z,99.00
2023-03-20T04:45:39.840Z,99.00
2023-03-20T04:48:41.924Z,99.00
2023-03-20T04:51:43.998Z,98.80
2023-03-20T04:54:46.034Z,98.90
2023-03-20T04:57:48.267Z,99.00
2023-03-20T05:00:50.463Z,98.80
2023-03-20T05:03:52.701Z,98.70
2023-03-20T05:06:54.842Z,98.70
2023-03-20T05:09:56.940Z,98.70
2023-03-20T05:12:59.056Z,98.90
2023-03-20T05:16:01.469Z,98.90
2023-03-20T05:19:03.705Z,98.90
2023-03-20T05:22:05.816Z,99.10
2023-03-20T05:25:08.293Z,99.10
2023-03-20T05:28:10.445Z,99.10
2023-03-20T05:31:12.836Z,98.80
2023-03-20T05:34:15.074Z,98.90
2023-03-20T05:37:17.237Z,99.10
2023-03-20T05:40:20.559Z,99.10
2023-03-20T05:43:22.524Z,99.10
2023-03-20T05:46:24.698Z,99.00
2023-03-20T05:49:26.930Z,99.20
2023-03-20T05:52:29.033Z,99.30
2023-03-20T05:55:31.157Z,99.60
2023-03-20T05:58:33.278Z,99.70
2023-03-20T06:01:35.537Z,99.80
2023-03-20T06:04:37.812Z,99.90
2023-03-20T06:07:39.874Z,99.90
2023-03-20T06:10:41.928Z,99.90
2023-03-20T06:13:44.035Z,99.90
2023-03-20T06:16:46.978Z,99.90
2023-03-20T06:19:49.051Z,99.90
2023-03-20T06:22:51.280Z,99.90
2023-03-20T06:25:53.351Z,99.90
2023-03-20T06:28:55.611Z,99.90
2023-03-20T06:31:57.889Z,99.90
2023-03-20T06:34:59.988Z,99.90
2023-03-20T06:38:02.393Z,99.90
2023-03-20T06:41:04.744Z,99.90
2023-03-20T06:44:07.024Z,99.90
2023-03-20T06:47:09.188Z,99.90
2023-03-20T06:50:11.841Z,99.90
2023-03-20T06:53:14.136Z,99.90
2023-03-20T06:56:17.006Z,99.90
2023-03-20T06:59:19.123Z,99.90
2023-03-20T07:02:21.104Z,99.90
2023-03-20T07:05:23.265Z,99.90
2023-03-20T07:08:25.442Z,99.90
2023-03-20T07:11:28.631Z,99.50
2023-03-20T07:14:30.759Z,98.20
2023-03-20T07:17:32.848Z,96.50
2023-03-20T07:20:34.907Z,95.30
2023-03-20T07:23:37.552Z,93.90
2023-03-20T07:26:41.219Z,92.50
2023-03-20T07:29:43.496Z,91.70
2023-03-20T07:32:46.117Z,90.60
2023-03-20T07:35:53.099Z,89.90
2023-03-20T07:38:55.213Z,86.20
2023-03-20T07:41:57.273Z,84.50
2023-03-20T07:44:59.428Z,84.30
2023-03-20T07:48:01.864Z,82.20
2023-03-20T07:51:04.310Z,79.20
2023-03-20T07:54:11.850Z,78.60
2023-03-20T07:57:13.877Z,77.30
2023-03-20T08:00:17.193Z,74.40
2023-03-20T08:03:21.654Z,74.50
2023-03-20T08:06:24.049Z,72.40
2023-03-20T08:09:26.400Z,70.60
2023-03-20T08:12:30.330Z,69.00
2023-03-20T08:15:33.722Z,69.50
2023-03-20T08:18:35.972Z,69.60
2023-03-20T08:21:39.169Z,69.60
2023-03-20T08:24:41.427Z,69.80
2023-03-20T08:27:43.975Z,67.70
2023-03-20T08:30:46.452Z,68.30
2023-03-20T08:33:49.079Z,67.10
2023-03-20T08:36:52.635Z,66.70
2023-03-20T08:39:54.819Z,65.90
2023-03-20T08:42:57.102Z,61.00
2023-03-20T08:45:59.194Z,62.80
2023-03-20T08:49:01.953Z,63.20
2023-03-20T08:52:04.729Z,62.40
2023-03-20T08:55:08.144Z,60.20
2023-03-20T08:58:11.007Z,58.90
2023-03-20T09:01:13.120Z,57.40
2023-03-20T09:04:15.391Z,55.20
2023-03-20T09:07:17.468Z,54.30
2023-03-20T09:10:19.836Z,54.00
2023-03-20T09:13:27.685Z,53.00
2023-03-20T09:16:30.380Z,52.20
2023-03-20T09:19:32.837Z,52.00
2023-03-20T09:22:35.980Z,52.20
2023-03-20T09:25:38.267Z,51.30
2023-03-20T09:28:40.508Z,50.90
2023-03-20T09:31:42.661Z,50.30
2023-03-20T09:34:44.749Z,48.70
2023-03-20T09:37:46.929Z,50.30
2023-03-20T09:40:56.317Z,50.50
2023-03-20T09:44:18.671Z,48.50
2023-03-20T09:47:39.697Z,47.10
2023-03-20T09:51:38.024Z,46.80
2023-03-20T09:54:54.168Z,48.10
2023-03-20T09:58:05.057Z,47.70
2023-03-20T10:01:11.850Z,45.70
2023-03-20T10:04:14.601Z,46.20
2023-03-20T10:07:18.517Z,43.30
2023-03-20T10:10:25.461Z,46.80
2023-03-20T10:13:33.341Z,44.70
2023-03-20T10:17:07.244Z,46.80
2023-03-20T10:20:15.587Z,45.20
2023-03-20T10:23:28.845Z,44.10
2023-03-20T10:26:35.869Z,42.90
2023-03-20T10:30:05.267Z,41.60
2023-03-20T10:33:12.767Z,40.80
2023-03-20T10:36:41.485Z,42.90
2023-03-20T10:39:50.643Z,41.70
2023-03-20T10:42:57.614Z,40.20
2023-03-20T10:46:05.450Z,42.00
2023-03-20T10:49:51.620Z,39.80
2023-03-20T10:52:56.383Z,39.40
2023-03-20T10:56:03.702Z,42.00
2023-03-20T10:59:28.837Z,45.00
2023-03-20T11:02:32.445Z,42.00
2023-03-20T11:05:37.077Z,38.60
2023-03-20T11:08:46.678Z,37.70
2023-03-20T11:11:52.553Z,40.30
2023-03-20T11:15:01.279Z,40.30
2023-03-20T11:18:14.104Z,39.70
2023-03-20T11:21:27.754Z,36.20
2023-03-20T11:24:43.248Z,38.90
2023-03-20T11:27:45.811Z,39.50
2023-03-20T11:31:03.964Z,38.70
2023-03-20T11:34:15.650Z,39.40
2023-03-20T11:37:29.507Z,39.70
2023-03-20T11:40:33.564Z,38.90
2023-03-20T11:43:41.941Z,40.20
2023-03-20T11:46:44.644Z,42.40
2023-03-20T11:49:50.652Z,44.20
2023-03-20T11:52:53.682Z,46.60
2023-03-20T11:56:12.543Z,48.50
2023-03-20T11:59:19.355Z,52.70
2023-03-20T12:02:24.612Z,56.50
2023-03-20T12:05:34.152Z,60.60
2023-03-20T12:08:38.768Z,63.40
2023-03-20T12:11:47.064Z,64.70
2023-03-20T12:15:07.805Z,65.40
2023-03-20T12:18:33.097Z,66.90
2023-03-20T12:21:51.568Z,67.80
2023-03-20T12:25:12.055Z,69.20
2023-03-20T12:28:26.487Z,69.70
2023-03-20T12:31:37.375Z,70.50
2023-03-20T12:34:47.074Z,71.10
2023-03-20T12:37:49.194Z,70.60
2023-03-20T12:40:55.126Z,71.10
2023-03-20T12:44:20.620Z,71.90
2023-03-20T12:47:58.189Z,72.80
2023-03-20T12:51:20.654Z,72.00
2023-03-20T12:54:48.871Z,71.30
2023-03-20T12:58:38.074Z,71.10
2023-03-20T13:01:55.867Z,72.10
2023-03-20T13:05:27.314Z,73.20
2023-03-20T13:08:43.347Z,73.90
2023-03-20T13:12:04.278Z,73.70
2023-03-20T13:15:15.450Z,75.70
2023-03-20T13:18:30.042Z,70.40
2023-03-20T13:21:58.872Z,73.10
2023-03-20T13:25:22.246Z,75.20
2023-03-20T13:28:41.090Z,75.20
2023-03-20T13:32:22.867Z,73.40
2023-03-20T13:35:37.269Z,72.70
2023-03-20T13:39:01.715Z,71.80
2023-03-20T13:42:09.831Z,70.70
2023-03-20T13:45:36.856Z,68.90
2023-03-20T13:48:43.604Z,66.90
2023-03-20T13:51:54.990Z,68.10
2023-03-20T13:55:23.858Z,68.40
2023-03-20T13:58:50.069Z,68.00
2023-03-20T14:02:16.016Z,68.10
2023-03-20T14:05:23.437Z,64.90
2023-03-20T14:08:28.507Z,62.40
2023-03-20T14:11:36.652Z,60.60
2023-03-20T14:14:50.950Z,59.30
2023-03-20T14:17:53.200Z,60.30
2023-03-20T14:21:11.758Z,60.00
2023-03-20T14:24:17.420Z,58.50
2023-03-20T14:27:36.757Z,59.10
2023-03-20T14:30:52.030Z,60.40
2023-03-20T14:34:21.952Z,60.70
2023-03-20T14:37:33.091Z,61.20
2023-03-20T14:40:43.994Z,57.90
2023-03-20T14:43:59.037Z,56.40
2023-03-20T14:47:43.664Z,57.40
2023-03-20T14:51:14.614Z,56.60
2023-03-20T14:54:22.666Z,56.10
2023-03-20T14:57:48.779Z,57.20
2023-03-20T15:00:55.482Z,57.00
2023-03-20T15:04:02.731Z,58.90
2023-03-20T15:07:14.112Z,58.10
2023-03-20T15:10:19.553Z,58.80
2023-03-20T15:13:24.955Z,58.70
2023-03-20T15:16:30.489Z,58.80
2023-03-20T15:19:33.775Z,57.80
2023-03-20T15:22:47.186Z,60.20
2023-03-20T15:25:50.878Z,60.20
2023-03-20T15:29:07.677Z,61.70
2023-03-20T15:32:15.045Z,60.70
2023-03-20T15:35:21.759Z,62.10
2023-03-20T15:38:33.172Z,63.10
2023-03-20T15:41:38.399Z,63.70
2023-03-20T15:44:43.252Z,64.40
2023-03-20T15:47:45.536Z,65.50
2023-03-20T15:51:01.235Z,65.20
2023-03-20T15:54:08.120Z,65.60
2023-03-20T15:57:16.730Z,64.60
2023-03-20T16:00:30.118Z,65.70
2023-03-20T16:03:33.427Z,65.50
2023-03-20T16:06:35.682Z,65.00
2023-03-20T16:09:45.015Z,64.00
2023-03-20T16:12:54.627Z,63.90
2023-03-20T16:15:57.195Z,64.30
2023-03-20T16:18:59.484Z,64.70
2023-03-20T16:22:09.780Z,64.80
2023-03-20T16:25:17.653Z,65.10
2023-03-20T16:28:19.779Z,64.80
2023-03-20T16:31:28.214Z,65.60
2023-03-20T16:34:38.014Z,66.00
2023-03-20T16:37:48.640Z,66.70
2023-03-20T16:40:55.386Z,67.50
2023-03-20T16:43:57.929Z,67.50
2023-03-20T16:47:03.124Z,67.70
2023-03-20T16:50:10.501Z,67.60
2023-03-20T16:53:16.398Z,68.20
2023-03-20T16:56:33.011Z,67.10
2023-03-20T16:59:39.969Z,67.20
2023-03-20T17:02:42.218Z,67.80
2023-03-20T17:05:57.600Z,67.70
2023-03-20T17:09:12.266Z,67.80
2023-03-20T17:12:18.160Z,67.80
2023-03-20T17:15:24.498Z,68.30
2023-03-20T17:18:28.166Z,68.70
2023-03-20T17:21:30.688Z,69.00
2023-03-20T17:24:32.795Z,69.40
2023-03-20T17:27:45.329Z,70.00
2023-03-20T17:30:51.891Z,70.40
2023-03-20T17:33:54.207Z,71.10
2023-03-20T17:36:57.563Z,71.40
2023-03-20T17:40:00.991Z,71.20
2023-03-20T17:43:03.117Z,71.90
2023-03-20T17:46:05.630Z,72.20
2023-03-20T17:49:13.483Z,72.30
2023-03-20T17:52:17.106Z,72.90
2023-03-20T17:55:19.359Z,72.60
2023-03-20T17:58:23.554Z,72.80
2023-03-20T18:01:27.373Z,73.70
2023-03-20T18:04:29.473Z,73.60
2023-03-20T18:07:31.629Z,73.90
2023-03-20T18:10:35.647Z,73.80
2023-03-20T18:13:37.802Z,74.30
2023-03-20T18:16:39.892Z,75.10
2023-03-20T18:19:42.947Z,75.80
2023-03-20T18:22:52.775Z,75.80
2023-03-20T18:25:55.003Z,76.60
2023-03-20T18:28:57.402Z,77.50
2023-03-20T18:31:59.655Z,79.00
2023-03-20T18:35:01.641Z,78.50
2023-03-20T18:38:04.531Z,80.80
2023-03-20T18:41:06.710Z,81.80
2023-03-20T18:44:08.740Z,83.40
2023-03-20T18:47:10.908Z,83.70
2023-03-20T18:50:19.088Z,83.20
2023-03-20T18:53:21.166Z,84.60
2023-03-20T18:56:25.790Z,86.70
2023-03-20T18:59:27.685Z,87.80
2023-03-20T19:02:29.703Z,89.90
2023-03-20T19:05:31.791Z,90.60
2023-03-20T19:08:38.560Z,91.00
2023-03-20T19:11:40.697Z,90.40
2023-03-20T19:14:42.758Z,90.30
2023-03-20T19:17:44.832Z,91.30
2023-03-20T19:20:48.878Z,91.20
2023-03-20T19:23:50.865Z,91.00
2023-03-20T19:26:57.126Z,91.10
2023-03-20T19:30:00.460Z,91.10
2023-03-20T19:33:03.060Z,91.60
2023-03-20T19:36:06.716Z,92.20
2023-03-20T19:39:12.820Z,92.30
2023-03-20T19:42:45.838Z,92.30
2023-03-20T19:45:39.848Z,92.60
2023-03-20T19:48:51.210Z,92.60
2023-03-20T19:51:53.579Z,92.80
2023-03-20T19:55:02.731Z,92.80
2023-03-20T19:58:06.533Z,93.40
2023-03-20T20:01:15.646Z,93.80
2023-03-20T20:04:17.966Z,94.30
2023-03-20T20:08:06.246Z,93.90
2023-03-20T20:10:44.994Z,94.20
2023-03-20T20:14:04.863Z,94.20
2023-03-20T20:17:08.333Z,93.90
2023-03-20T20:20:11.379Z,94.10
2023-03-20T20:23:16.081Z,94.10
2023-03-20T20:26:18.595Z,93.90
2023-03-20T20:29:21.031Z,94.30
2023-03-20T20:32:27.056Z,94.10
2023-03-20T20:35:51.268Z,94.80
2023-03-20T20:38:53.601Z,94.40
2023-03-20T20:41:56.014Z,94.40
2023-03-20T20:44:58.090Z,94.40
2023-03-20T20:48:01.568Z,95.40
2023-03-20T20:51:03.816Z,96.00
2023-03-20T20:54:06.125Z,95.70
2023-03-20T20:57:10.940Z,95.60
2023-03-20T21:00:15.453Z,95.70
2023-03-20T21:03:18.350Z,96.20
2023-03-20T21:06:22.755Z,96.10
2023-03-20T21:09:26.139Z,95.80
2023-03-20T21:12:36.594Z,96.30
2023-03-20T21:15:45.791Z,96.30
2023-03-20T21:18:47.967Z,96.80
2023-03-20T21:21:50.154Z,96.80
2023-03-20T21:24:58.076Z,96.90
2023-03-20T21:28:12.634Z,97.30
2023-03-20T21:31:28.063Z,96.70
2023-03-20T21:34:32.594Z,96.60
2023-03-20T21:38:36.201Z,96.20
2023-03-20T21:41:07.128Z,96.00
2023-03-20T21:44:16.703Z,95.90
2023-03-20T21:51:10.610Z,96.10
2023-03-20T21:54:59.419Z,95.80
2023-03-20T21:58:16.693Z,95.70
2023-03-20T22:08:09.690Z,95.30
2023-03-20T22:18:28.832Z,95.00
2023-03-20T22:28:40.850Z,94.80
2023-03-20T22:35:25.468Z,94.80
2023-03-20T22:38:55.511Z,94.60
2023-03-20T22:42:22.436Z,94.60
2023-03-20T22:45:05.529Z,94.40
2023-03-20T22:48:07.871Z,94.40
2023-03-20T22:51:10.748Z,94.20
2023-03-20T22:54:12.895Z,94.20
2023-03-20T22:57:14.995Z,94.10
2023-03-20T23:00:18.896Z,93.90
2023-03-20T23:03:33.760Z,94.20
2023-03-20T23:06:42.701Z,93.90
2023-03-20T23:09:44.738Z,94.00
2023-03-20T23:12:47.062Z,94.20
2023-03-20T23:15:50.885Z,94.40
2023-03-20T23:18:53.081Z,94.60
2023-03-20T23:21:55.219Z,94.80
2023-03-20T23:24:59.873Z,94.60
2023-03-20T23:28:05.567Z,94.60
2023-03-20T23:31:11.355Z,95.10
2023-03-20T23:34:14.474Z,95.10
2023-03-20T23:37:17.846Z,95.10
2023-03-20T23:40:20.009Z,95.20
2023-03-20T23:43:22.938Z,95.20
2023-03-20T23:46:25.030Z,95.10
2023-03-20T23:49:27.406Z,95.30
2023-03-20T23:52:29.507Z,95.50
2023-03-20T23:55:34.291Z,95.60
2023-03-20T23:58:41.904Z,95.80
